Acme, Washington
Current Conditions -  °F | °C
As of 8:53 PM on Wednesday 26 Nov 2014 (Local Time) from KBLI Reporting Station
Light Rain Light Rain  
Wind Chill: 59°   Ceiling: 7500
Heat Index: 59°   Visibility: 10mi
Dew Point: 50°   Wind: 15mph
Humidity: 72%   Direction: 150°SSE
Pressure: 29.79"   Gusts: 28mph
Location:  48.72°N, 122.21°W
Report Text: KBLI 270453Z 15013G24KT 10SM -RA FEW030 BKN075 OVC090 15/10 A2979 RMK AO2 SLP093 P0001 T01500100
Loading
Personal Weather Stations






























Interactive Weather Map New forecast layout! Learn more

10-Day Weather Forecast

Advertisements
Track Severe Weather on mobile